Prentiss, Mississippi
Current Conditions -  °F | °C
As of 10:15 AM on Thursday 29 Jan 2015 (Local Time) from K1R7 Reporting Station
Clear Clear  
Wind Chill: 64°   Ceiling: Unl
Heat Index: 64°   Visibility: NA
Dew Point: 55°   Wind: 14mph
Humidity: 73%   Direction: 210°SSW
Pressure: 30.25"   Gusts: 20mph
Location:  31.6°N, 89.87°W
Report Text: K1R7 291615Z AUTO 21012G17KT CLR 18/13 A3025 RMK AO2
Loading
Personal Weather Stations






























Interactive Weather Map New forecast layout! Learn more

10-Day Weather Forecast

Advertisements
Track Severe Weather on mobile